sensor_id;sensor_type;location;lat;lon;timestamp;pressure;altitude;pressure_sealevel;temperature;humidity
22755;BME280;11544;42.020;23.094;2023-02-02T00:01:22;97419.47;;;2.01;94.36
22755;BME280;11544;42.020;23.094;2023-02-02T00:03:50;97417.78;;;2.51;92.50
22755;BME280;11544;42.020;23.094;2023-02-02T00:06:19;97422.91;;;2.75;90.53
22755;BME280;11544;42.020;23.094;2023-02-02T00:08:46;97415.19;;;2.80;88.76
22755;BME280;11544;42.020;23.094;2023-02-02T00:11:14;97411.75;;;2.81;88.22
22755;BME280;11544;42.020;23.094;2023-02-02T00:13:41;97411.69;;;3.04;86.78
22755;BME280;11544;42.020;23.094;2023-02-02T00:18:56;97425.47;;;2.09;89.78
22755;BME280;11544;42.020;23.094;2023-02-02T00:21:24;97421.22;;;2.44;91.24
22755;BME280;11544;42.020;23.094;2023-02-02T00:23:51;97427.22;;;2.46;91.46
22755;BME280;11544;42.020;23.094;2023-02-02T00:26:19;97427.19;;;2.10;92.28
22755;BME280;11544;42.020;23.094;2023-02-02T00:28:47;97426.31;;;1.99;93.82
22755;BME280;11544;42.020;23.094;2023-02-02T00:31:14;97424.63;;;2.43;93.84
22755;BME280;11544;42.020;23.094;2023-02-02T00:33:47;97426.31;;;2.10;94.54
22755;BME280;11544;42.020;23.094;2023-02-02T00:36:15;97423.75;;;2.31;95.16
22755;BME280;11544;42.020;23.094;2023-02-02T00:38:43;97424.66;;;2.46;95.09
22755;BME280;11544;42.020;23.094;2023-02-02T00:41:10;97422.94;;;2.56;94.27
22755;BME280;11544;42.020;23.094;2023-02-02T00:43:37;97423.78;;;2.84;92.28
22755;BME280;11544;42.020;23.094;2023-02-02T00:46:04;97426.34;;;2.68;90.52
22755;BME280;11544;42.020;23.094;2023-02-02T00:48:32;97429.78;;;2.57;90.81
22755;BME280;11544;42.020;23.094;2023-02-02T00:50:59;97420.34;;;2.49;91.93
22755;BME280;11544;42.020;23.094;2023-02-02T00:53:27;97425.50;;;2.29;92.06
22755;BME280;11544;42.020;23.094;2023-02-02T00:55:54;97416.91;;;2.33;92.13
22755;BME280;11544;42.020;23.094;2023-02-02T00:58:21;97423.75;;;1.92;93.31
22755;BME280;11544;42.020;23.094;2023-02-02T01:00:48;97415.16;;;2.05;94.85
22755;BME280;11544;42.020;23.094;2023-02-02T01:03:15;97409.19;;;2.29;94.34
22755;BME280;11544;42.020;23.094;2023-02-02T01:05:42;97414.34;;;2.15;94.52
22755;BME280;11544;42.020;23.094;2023-02-02T01:08:09;97411.75;;;2.73;93.18
22755;BME280;11544;42.020;23.094;2023-02-02T01:10:36;97407.47;;;2.45;93.05
22755;BME280;11544;42.020;23.094;2023-02-02T01:13:03;97406.59;;;2.69;92.38
22755;BME280;11544;42.020;23.094;2023-02-02T01:15:29;97407.50;;;2.42;92.53
22755;BME280;11544;42.020;23.094;2023-02-02T01:17:57;97413.47;;;2.13;92.70
22755;BME280;11544;42.020;23.094;2023-02-02T01:20:24;97426.31;;;2.04;94.85
22755;BME280;11544;42.020;23.094;2023-02-02T01:22:51;97417.78;;;2.51;93.15
22755;BME280;11544;42.020;23.094;2023-02-02T01:25:18;97410.88;;;2.67;92.97
22755;BME280;11544;42.020;23.094;2023-02-02T01:27:45;97411.75;;;2.64;91.92
22755;BME280;11544;42.020;23.094;2023-02-02T01:30:13;97412.59;;;2.94;90.75
22755;BME280;11544;42.020;23.094;2023-02-02T01:32:40;97410.91;;;2.51;90.50
22755;BME280;11544;42.020;23.094;2023-02-02T01:35:07;97410.03;;;2.75;90.23
22755;BME280;11544;42.020;23.094;2023-02-02T01:37:35;97403.22;;;2.39;91.04
22755;BME280;11544;42.020;23.094;2023-02-02T01:40:04;97413.50;;;2.25;92.88
22755;BME280;11544;42.020;23.094;2023-02-02T01:42:32;97402.31;;;2.22;93.83
22755;BME280;11544;42.020;23.094;2023-02-02T01:45:23;97390.34;;;2.27;93.72
22755;BME280;11544;42.020;23.094;2023-02-02T01:47:53;97397.19;;;2.23;94.27
22755;BME280;11544;42.020;23.094;2023-02-02T01:50:29;97393.75;;;2.47;94.86
22755;BME280;11544;42.020;23.094;2023-02-02T01:52:57;97381.75;;;2.43;93.93
22755;BME280;11544;42.020;23.094;2023-02-02T01:55:26;97390.31;;;2.24;93.32
22755;BME280;11544;42.020;23.094;2023-02-02T01:58:05;97386.91;;;2.40;94.66
22755;BME280;11544;42.020;23.094;2023-02-02T02:00:37;97386.03;;;2.14;95.35
22755;BME280;11544;42.020;23.094;2023-02-02T02:03:10;97391.16;;;2.03;97.09
22755;BME280;11544;42.020;23.094;2023-02-02T02:05:43;97393.75;;;2.18;97.59
22755;BME280;11544;42.020;23.094;2023-02-02T02:08:25;97401.50;;;2.20;97.53
22755;BME280;11544;42.020;23.094;2023-02-02T02:10:53;97398.91;;;2.26;96.64
22755;BME280;11544;42.020;23.094;2023-02-02T02:13:22;97398.06;;;2.48;95.93
22755;BME280;11544;42.020;23.094;2023-02-02T02:16:21;97399.75;;;2.68;94.22
22755;BME280;11544;42.020;23.094;2023-02-02T02:28:19;97403.19;;;2.08;94.94
22755;BME280;11544;42.020;23.094;2023-02-02T02:33:45;97404.03;;;2.06;96.54
22755;BME280;11544;42.020;23.094;2023-02-02T02:39:11;97392.91;;;2.30;96.24
22755;BME280;11544;42.020;23.094;2023-02-02T02:41:45;97383.44;;;2.00;95.32
22755;BME280;11544;42.020;23.094;2023-02-02T02:44:15;97394.59;;;1.89;96.28
22755;BME280;11544;42.020;23.094;2023-02-02T02:46:44;97382.63;;;2.08;95.86
22755;BME280;11544;42.020;23.094;2023-02-02T02:49:12;97389.44;;;1.89;96.95
22755;BME280;11544;42.020;23.094;2023-02-02T02:51:50;97392.88;;;1.99;96.85
22755;BME280;11544;42.020;23.094;2023-02-02T02:54:39;97395.47;;;2.25;97.17
22755;BME280;11544;42.020;23.094;2023-02-02T02:57:19;97393.78;;;2.37;96.00
22755;BME280;11544;42.020;23.094;2023-02-02T03:10:39;97396.78;;;0.91;100.00
22755;BME280;11544;42.020;23.094;2023-02-02T03:13:08;97406.50;;;1.54;100.00
22755;BME280;11544;42.020;23.094;2023-02-02T03:15:40;97409.91;;;1.46;100.00
22755;BME280;11544;42.020;23.094;2023-02-02T03:18:07;97417.47;;;1.19;100.00
22755;BME280;11544;42.020;23.094;2023-02-02T03:20:35;97414.13;;;1.35;100.00
22755;BME280;11544;42.020;23.094;2023-02-02T03:23:01;97407.13;;;1.03;100.00
22755;BME280;11544;42.020;23.094;2023-02-02T03:25:28;97409.81;;;1.26;100.00
22755;BME280;11544;42.020;23.094;2023-02-02T03:27:57;97410.63;;;1.22;100.00
22755;BME280;11544;42.020;23.094;2023-02-02T03:30:24;97418.09;;;0.73;100.00
22755;BME280;11544;42.020;23.094;2023-02-02T03:32:51;97420.75;;;0.92;100.00
22755;BME280;11544;42.020;23.094;2023-02-02T03:35:18;97418.88;;;0.65;100.00
22755;BME280;11544;42.020;23.094;2023-02-02T03:37:49;97421.59;;;0.89;100.00
22755;BME280;11544;42.020;23.094;2023-02-02T03:40:16;97418.31;;;1.12;100.00
22755;BME280;11544;42.020;23.094;2023-02-02T03:42:43;97414.03;;;1.17;100.00
22755;BME280;11544;42.020;23.094;2023-02-02T03:45:10;97407.28;;;1.40;100.00
22755;BME280;11544;42.020;23.094;2023-02-02T03:47:37;97404.66;;;1.25;100.00
22755;BME280;11544;42.020;23.094;2023-02-02T03:50:05;97401.00;;;0.80;100.00
22755;BME280;11544;42.020;23.094;2023-02-02T03:52:35;97400.31;;;1.07;100.00
22755;BME280;11544;42.020;23.094;2023-02-02T03:55:02;97405.38;;;1.01;100.00
22755;BME280;11544;42.020;23.094;2023-02-02T03:57:30;97403.66;;;0.94;100.00
22755;BME280;11544;42.020;23.094;2023-02-02T03:59:57;97411.34;;;0.92;100.00
22755;BME280;11544;42.020;23.094;2023-02-02T04:02:23;97402.44;;;0.42;100.00
22755;BME280;11544;42.020;23.094;2023-02-02T04:04:50;97405.91;;;0.46;100.00
22755;BME280;11544;42.020;23.094;2023-02-02T04:07:17;97410.28;;;0.59;100.00
22755;BME280;11544;42.020;23.094;2023-02-02T04:09:45;97408.44;;;0.45;100.00
22755;BME280;11544;42.020;23.094;2023-02-02T04:12:12;97416.88;;;0.27;100.00
22755;BME280;11544;42.020;23.094;2023-02-02T04:14:39;97406.84;;;0.60;100.00
22755;BME280;11544;42.020;23.094;2023-02-02T04:17:05;97397.06;;;3.17;100.00
22755;BME280;11544;42.020;23.094;2023-02-02T04:19:32;97398.69;;;1.37;100.00
22755;BME280;11544;42.020;23.094;2023-02-02T04:21:59;97406.03;;;0.65;100.00
22755;BME280;11544;42.020;23.094;2023-02-02T04:24:29;97406.81;;;0.54;100.00
22755;BME280;11544;42.020;23.094;2023-02-02T04:26:56;97404.47;;;0.87;100.00
22755;BME280;11544;42.020;23.094;2023-02-02T04:29:23;97406.19;;;0.91;100.00
22755;BME280;11544;42.020;23.094;2023-02-02T04:31:51;97410.28;;;0.61;100.00
22755;BME280;11544;42.020;23.094;2023-02-02T04:34:18;97404.78;;;0.13;100.00
22755;BME280;11544;42.020;23.094;2023-02-02T04:36:45;97415.13;;;0.24;100.00
22755;BME280;11544;42.020;23.094;2023-02-02T04:39:13;97423.91;;;0.54;100.00
22755;BME280;11544;42.020;23.094;2023-02-02T04:41:40;97420.59;;;0.67;100.00
22755;BME280;11544;42.020;23.094;2023-02-02T04:44:12;97419.72;;;0.62;100.00
22755;BME280;11544;42.020;23.094;2023-02-02T04:46:42;97429.63;;;0.20;100.00
22755;BME280;11544;42.020;23.094;2023-02-02T04:49:10;97439.69;;;-0.01;100.00
22755;BME280;11544;42.020;23.094;2023-02-02T04:51:38;97439.09;;;0.26;100.00
22755;BME280;11544;42.020;23.094;2023-02-02T04:54:05;97433.34;;;0.56;100.00
22755;BME280;11544;42.020;23.094;2023-02-02T04:56:33;97449.66;;;0.66;100.00
22755;BME280;11544;42.020;23.094;2023-02-02T04:59:00;97446.25;;;0.67;100.00
22755;BME280;11544;42.020;23.094;2023-02-02T05:01:27;97444.44;;;0.52;100.00
22755;BME280;11544;42.020;23.094;2023-02-02T05:03:56;97449.72;;;0.72;100.00
22755;BME280;11544;42.020;23.094;2023-02-02T05:06:23;97449.78;;;0.84;100.00
22755;BME280;11544;42.020;23.094;2023-02-02T05:08:50;97447.84;;;0.54;100.00
22755;BME280;11544;42.020;23.094;2023-02-02T05:11:21;97454.66;;;0.48;100.00
22755;BME280;11544;42.020;23.094;2023-02-02T05:13:51;97454.81;;;0.68;100.00
22755;BME280;11544;42.020;23.094;2023-02-02T05:16:19;97466.66;;;0.50;100.00
22755;BME280;11544;42.020;23.094;2023-02-02T05:18:50;97472.47;;;0.32;100.00
22755;BME280;11544;42.020;23.094;2023-02-02T05:21:19;97469.06;;;0.32;100.00
22755;BME280;11544;42.020;23.094;2023-02-02T05:23:46;97474.38;;;0.55;100.00
22755;BME280;11544;42.020;23.094;2023-02-02T05:26:19;97482.03;;;0.50;100.00
22755;BME280;11544;42.020;23.094;2023-02-02T05:28:47;97489.81;;;0.59;100.00
22755;BME280;11544;42.020;23.094;2023-02-02T05:31:14;97490.53;;;0.43;100.00
22755;BME280;11544;42.020;23.094;2023-02-02T05:33:41;97491.94;;;0.13;100.00
22755;BME280;11544;42.020;23.094;2023-02-02T05:36:09;97489.94;;;0.78;100.00
22755;BME280;11544;42.020;23.094;2023-02-02T05:38:35;97489.16;;;0.90;100.00
22755;BME280;11544;42.020;23.094;2023-02-02T05:41:03;97484.16;;;1.05;100.00
22755;BME280;11544;42.020;23.094;2023-02-02T05:43:31;97488.44;;;1.06;100.00
22755;BME280;11544;42.020;23.094;2023-02-02T05:45:59;97484.84;;;0.81;100.00
22755;BME280;11544;42.020;23.094;2023-02-02T05:48:26;97494.97;;;0.66;100.00
22755;BME280;11544;42.020;23.094;2023-02-02T05:51:02;97496.75;;;0.71;100.00
22755;BME280;11544;42.020;23.094;2023-02-02T05:53:33;97489.16;;;0.90;100.00
22755;BME280;11544;42.020;23.094;2023-02-02T05:56:00;97500.50;;;1.18;100.00
22755;BME280;11544;42.020;23.094;2023-02-02T05:58:28;97502.81;;;0.81;100.00
22755;BME280;11544;42.020;23.094;2023-02-02T06:00:55;97498.63;;;0.92;100.00
22755;BME280;11544;42.020;23.094;2023-02-02T06:03:22;97496.16;;;1.04;100.00
22755;BME280;11544;42.020;23.094;2023-02-02T06:05:49;97497.69;;;0.84;100.00
22755;BME280;11544;42.020;23.094;2023-02-02T06:08:16;97491.53;;;3.18;100.00
22755;BME280;11544;42.020;23.094;2023-02-02T06:10:43;97492.94;;;4.07;100.00
22755;BME280;11544;42.020;23.094;2023-02-02T06:13:22;97493.06;;;1.75;100.00
22755;BME280;11544;42.020;23.094;2023-02-02T06:15:49;97495.75;;;1.96;100.00
22755;BME280;11544;42.020;23.094;2023-02-02T06:18:16;97491.91;;;1.13;100.00
22755;BME280;11544;42.020;23.094;2023-02-02T06:20:43;97501.44;;;1.34;100.00
22755;BME280;11544;42.020;23.094;2023-02-02T06:23:11;97514.25;;;1.27;100.00
22755;BME280;11544;42.020;23.094;2023-02-02T06:25:38;97507.09;;;0.80;100.00
22755;BME280;11544;42.020;23.094;2023-02-02T06:28:05;97500.53;;;1.22;100.00
22755;BME280;11544;42.020;23.094;2023-02-02T06:30:33;97502.88;;;0.90;100.00
22755;BME280;11544;42.020;23.094;2023-02-02T06:33:00;97513.63;;;1.72;100.00
22755;BME280;11544;42.020;23.094;2023-02-02T06:35:27;97518.03;;;2.05;100.00
22755;BME280;11544;42.020;23.094;2023-02-02T06:37:54;97506.13;;;2.64;100.00
22755;BME280;11544;42.020;23.094;2023-02-02T06:40:21;97508.72;;;2.73;100.00
22755;BME280;11544;42.020;23.094;2023-02-02T06:42:54;97512.16;;;2.77;100.00
22755;BME280;11544;42.020;23.094;2023-02-02T06:45:22;97503.56;;;3.05;100.00
22755;BME280;11544;42.020;23.094;2023-02-02T06:47:49;97521.47;;;2.04;100.00
22755;BME280;11544;42.020;23.094;2023-02-02T06:50:16;97523.94;;;1.81;100.00
22755;BME280;11544;42.020;23.094;2023-02-02T06:52:48;97532.66;;;2.29;100.00
22755;BME280;11544;42.020;23.094;2023-02-02T06:55:15;97518.13;;;3.28;100.00
22755;BME280;11544;42.020;23.094;2023-02-02T06:57:42;97512.81;;;3.88;100.00
22755;BME280;11544;42.020;23.094;2023-02-02T07:00:10;97512.44;;;4.57;100.00
22755;BME280;11544;42.020;23.094;2023-02-02T07:02:37;97499.63;;;4.40;96.86
22755;BME280;11544;42.020;23.094;2023-02-02T07:05:05;97493.13;;;5.02;92.98
22755;BME280;11544;42.020;23.094;2023-02-02T07:07:33;97492.25;;;3.69;91.89
22755;BME280;11544;42.020;23.094;2023-02-02T07:09:59;97491.25;;;4.02;95.30
22755;BME280;11544;42.020;23.094;2023-02-02T07:12:28;97472.75;;;4.69;91.58
22755;BME280;11544;42.020;23.094;2023-02-02T07:14:56;97486.81;;;4.24;89.57
22755;BME280;11544;42.020;23.094;2023-02-02T07:17:24;97475.91;;;3.73;91.48
22755;BME280;11544;42.020;23.094;2023-02-02T07:19:51;97473.41;;;3.44;92.79
22755;BME280;11544;42.020;23.094;2023-02-02T07:22:19;97488.28;;;4.65;91.27
22755;BME280;11544;42.020;23.094;2023-02-02T07:24:46;97490.34;;;4.08;91.95
22755;BME280;11544;42.020;23.094;2023-02-02T07:27:13;97498.19;;;3.87;90.46
22755;BME280;11544;42.020;23.094;2023-02-02T07:29:40;97499.97;;;3.74;93.69
22755;BME280;11544;42.020;23.094;2023-02-02T07:32:09;97492.94;;;4.10;93.48
22755;BME280;11544;42.020;23.094;2023-02-02T07:34:37;97493.25;;;3.16;94.06
22755;BME280;11544;42.020;23.094;2023-02-02T07:37:04;97508.66;;;2.25;97.46
22755;BME280;11544;42.020;23.094;2023-02-02T07:39:31;97515.53;;;2.23;100.00
22755;BME280;11544;42.020;23.094;2023-02-02T07:41:58;97512.16;;;2.53;100.00
22755;BME280;11544;42.020;23.094;2023-02-02T07:44:25;97506.16;;;2.78;100.00
22755;BME280;11544;42.020;23.094;2023-02-02T07:46:52;97500.16;;;2.77;100.00
22755;BME280;11544;42.020;23.094;2023-02-02T07:49:19;97494.09;;;3.18;100.00
22755;BME280;11544;42.020;23.094;2023-02-02T07:51:46;97484.69;;;3.00;99.52
22755;BME280;11544;42.020;23.094;2023-02-02T07:54:15;97487.22;;;3.20;100.00
22755;BME280;11544;42.020;23.094;2023-02-02T07:56:42;97491.53;;;3.10;99.94
22755;BME280;11544;42.020;23.094;2023-02-02T07:59:09;97490.69;;;2.91;100.00
22755;BME280;11544;42.020;23.094;2023-02-02T08:01:36;97482.97;;;2.47;100.00
22755;BME280;11544;42.020;23.094;2023-02-02T08:04:04;97488.97;;;3.07;100.00
22755;BME280;11544;42.020;23.094;2023-02-02T08:06:34;97479.38;;;3.63;100.00
22755;BME280;11544;42.020;23.094;2023-02-02T08:09:03;97480.97;;;3.92;98.36
22755;BME280;11544;42.020;23.094;2023-02-02T08:11:30;97478.38;;;3.93;97.64
22755;BME280;11544;42.020;23.094;2023-02-02T08:13:59;97473.25;;;3.90;95.41
22755;BME280;11544;42.020;23.094;2023-02-02T08:16:28;97462.28;;;4.87;93.81
22755;BME280;11544;42.020;23.094;2023-02-02T08:18:56;97451.28;;;4.62;88.89
22755;BME280;11544;42.020;23.094;2023-02-02T08:21:23;97453.16;;;4.44;89.87
22755;BME280;11544;42.020;23.094;2023-02-02T08:23:50;97445.47;;;5.31;87.82
22755;BME280;11544;42.020;23.094;2023-02-02T08:26:21;97438.53;;;6.07;83.69
22755;BME280;11544;42.020;23.094;2023-02-02T08:29:07;97436.50;;;5.60;84.80
22755;BME280;11544;42.020;23.094;2023-02-02T08:31:37;97437.25;;;5.71;83.65
22755;BME280;11544;42.020;23.094;2023-02-02T08:34:08;97440.69;;;5.71;82.76
22755;BME280;11544;42.020;23.094;2023-02-02T08:36:35;97422.50;;;6.41;81.05
22755;BME280;11544;42.020;23.094;2023-02-02T08:39:05;97424.91;;;5.93;79.15
22755;BME280;11544;42.020;23.094;2023-02-02T08:41:35;97436.06;;;5.25;79.65
22755;BME280;11544;42.020;23.094;2023-02-02T08:44:07;97416.53;;;6.36;74.27
22755;BME280;11544;42.020;23.094;2023-02-02T08:46:37;97423.56;;;6.82;70.53
22755;BME280;11544;42.020;23.094;2023-02-02T08:49:04;97426.19;;;6.26;69.96
22755;BME280;11544;42.020;23.094;2023-02-02T08:51:31;97414.09;;;6.27;67.22
22755;BME280;11544;42.020;23.094;2023-02-02T08:53:58;97423.50;;;5.67;68.60
22755;BME280;11544;42.020;23.094;2023-02-02T08:56:25;97410.81;;;6.68;65.22
22755;BME280;11544;42.020;23.094;2023-02-02T08:58:53;97402.88;;;6.79;64.50
22755;BME280;11544;42.020;23.094;2023-02-02T09:01:23;97407.47;;;6.63;65.67
22755;BME280;11544;42.020;23.094;2023-02-02T09:03:55;97406.44;;;6.73;64.07
22755;BME280;11544;42.020;23.094;2023-02-02T09:06:27;97402.81;;;6.31;65.77
22755;BME280;11544;42.020;23.094;2023-02-02T09:08:55;97399.53;;;6.72;65.07
22755;BME280;11544;42.020;23.094;2023-02-02T09:11:22;97395.66;;;7.41;62.46
22755;BME280;11544;42.020;23.094;2023-02-02T09:13:54;97388.03;;;7.34;62.00
22755;BME280;11544;42.020;23.094;2023-02-02T09:16:23;97384.63;;;7.32;61.05
22755;BME280;11544;42.020;23.094;2023-02-02T09:18:51;97377.66;;;8.15;59.62
22755;BME280;11544;42.020;23.094;2023-02-02T09:21:19;97379.97;;;8.64;57.04
22755;BME280;11544;42.020;23.094;2023-02-02T09:23:48;97374.16;;;8.17;57.42
22755;BME280;11544;42.020;23.094;2023-02-02T09:26:24;97366.28;;;7.83;59.75
22755;BME280;11544;42.020;23.094;2023-02-02T09:29:00;97366.31;;;8.19;57.83
22755;BME280;11544;42.020;23.094;2023-02-02T09:31:29;97361.31;;;8.11;57.98
22755;BME280;11544;42.020;23.094;2023-02-02T09:34:04;97356.78;;;8.19;58.14
22755;BME280;11544;42.020;23.094;2023-02-02T09:36:32;97355.00;;;8.21;58.58
22755;BME280;11544;42.020;23.094;2023-02-02T09:38:59;97353.53;;;8.11;57.28
22755;BME280;11544;42.020;23.094;2023-02-02T09:46:51;97333.72;;;9.71;53.60
22755;BME280;11544;42.020;23.094;2023-02-02T09:49:27;97330.84;;;8.88;53.90
22755;BME280;11544;42.020;23.094;2023-02-02T09:52:27;97328.88;;;8.98;52.72
22755;BME280;11544;42.020;23.094;2023-02-02T09:54:55;97327.09;;;9.29;52.84
22755;BME280;11544;42.020;23.094;2023-02-02T09:57:28;97310.13;;;10.04;51.68
22755;BME280;11544;42.020;23.094;2023-02-02T09:59:57;97308.94;;;10.14;50.89
22755;BME280;11544;42.020;23.094;2023-02-02T10:02:34;97298.66;;;10.09;50.91
22755;BME280;11544;42.020;23.094;2023-02-02T10:05:17;97294.63;;;9.99;51.34
22755;BME280;11544;42.020;23.094;2023-02-02T10:07:49;97286.16;;;9.36;53.65
22755;BME280;11544;42.020;23.094;2023-02-02T10:10:21;97279.53;;;10.10;52.22
22755;BME280;11544;42.020;23.094;2023-02-02T10:12:56;97276.47;;;10.24;51.37
22755;BME280;11544;42.020;23.094;2023-02-02T10:16:11;97274.72;;;10.25;51.42
22755;BME280;11544;42.020;23.094;2023-02-02T10:21:40;97266.44;;;10.13;51.22
22755;BME280;11544;42.020;23.094;2023-02-02T10:24:17;97257.47;;;10.72;48.68
22755;BME280;11544;42.020;23.094;2023-02-02T10:26:48;97249.84;;;10.91;47.97
22755;BME280;11544;42.020;23.094;2023-02-02T10:34:43;97249.69;;;10.96;44.21
22755;BME280;11544;42.020;23.094;2023-02-02T10:42:46;97241.66;;;11.26;43.97
22755;BME280;11544;42.020;23.094;2023-02-02T10:45:41;97239.69;;;11.09;42.71
22755;BME280;11544;42.020;23.094;2023-02-02T10:48:18;97224.09;;;11.53;41.46
22755;BME280;11544;42.020;23.094;2023-02-02T10:50:51;97226.16;;;11.21;43.88
22755;BME280;11544;42.020;23.094;2023-02-02T10:53:21;97222.94;;;11.14;48.60
22755;BME280;11544;42.020;23.094;2023-02-02T10:56:12;97220.63;;;11.07;49.18
22755;BME280;11544;42.020;23.094;2023-02-02T10:59:00;97218.38;;;10.96;48.31
22755;BME280;11544;42.020;23.094;2023-02-02T11:01:30;97207.34;;;11.13;46.89
22755;BME280;11544;42.020;23.094;2023-02-02T11:03:57;97222.38;;;11.06;47.01
22755;BME280;11544;42.020;23.094;2023-02-02T11:06:42;97217.84;;;10.88;43.50
22755;BME280;11544;42.020;23.094;2023-02-02T11:09:39;97219.53;;;10.40;43.81
22755;BME280;11544;42.020;23.094;2023-02-02T11:12:17;97211.56;;;9.65;45.68
22755;BME280;11544;42.020;23.094;2023-02-02T11:14:50;97201.88;;;10.22;46.53
22755;BME280;11544;42.020;23.094;2023-02-02T11:17:23;97204.09;;;10.07;47.05
22755;BME280;11544;42.020;23.094;2023-02-02T11:19:51;97199.03;;;10.54;45.08
22755;BME280;11544;42.020;23.094;2023-02-02T11:22:33;97189.75;;;10.47;44.02
22755;BME280;11544;42.020;23.094;2023-02-02T11:25:25;97179.34;;;10.71;43.79
22755;BME280;11544;42.020;23.094;2023-02-02T11:27:52;97180.88;;;10.26;45.32
22755;BME280;11544;42.020;23.094;2023-02-02T11:30:26;97178.63;;;10.42;45.32
22755;BME280;11544;42.020;23.094;2023-02-02T11:32:53;97183.16;;;10.10;44.18
22755;BME280;11544;42.020;23.094;2023-02-02T11:35:24;97177.16;;;9.82;44.00
22755;BME280;11544;42.020;23.094;2023-02-02T11:38:13;97168.22;;;10.15;43.97
22755;BME280;11544;42.020;23.094;2023-02-02T11:40:52;97169.59;;;10.01;44.73
22755;BME280;11544;42.020;23.094;2023-02-02T11:46:22;97161.28;;;9.89;44.88
22755;BME280;11544;42.020;23.094;2023-02-02T11:49:02;97154.25;;;9.66;44.14
22755;BME280;11544;42.020;23.094;2023-02-02T11:51:30;97147.84;;;9.77;44.49
22755;BME280;11544;42.020;23.094;2023-02-02T11:56:37;97139.91;;;10.06;44.63
22755;BME280;11544;42.020;23.094;2023-02-02T12:04:46;97130.09;;;10.63;43.36
22755;BME280;11544;42.020;23.094;2023-02-02T12:07:24;97135.34;;;10.38;43.77
22755;BME280;11544;42.020;23.094;2023-02-02T12:09:52;97126.69;;;10.61;41.84
22755;BME280;11544;42.020;23.094;2023-02-02T12:12:44;97122.50;;;10.57;41.49
22755;BME280;11544;42.020;23.094;2023-02-02T12:15:52;97113.03;;;10.54;41.57
22755;BME280;11544;42.020;23.094;2023-02-02T12:21:04;97118.19;;;10.56;41.84
22755;BME280;11544;42.020;23.094;2023-02-02T12:23:51;97111.16;;;10.58;41.80
22755;BME280;11544;42.020;23.094;2023-02-02T12:26:31;97114.72;;;10.55;41.05
22755;BME280;11544;42.020;23.094;2023-02-02T12:29:11;97111.69;;;10.68;40.75
22755;BME280;11544;42.020;23.094;2023-02-02T12:32:12;97095.91;;;10.71;41.29
22755;BME280;11544;42.020;23.094;2023-02-02T12:35:04;97091.22;;;10.57;40.61
22755;BME280;11544;42.020;23.094;2023-02-02T12:38:12;97080.22;;;11.16;40.11
22755;BME280;11544;42.020;23.094;2023-02-02T12:43:26;97077.41;;;11.65;38.36
22755;BME280;11544;42.020;23.094;2023-02-02T12:46:29;97077.16;;;11.49;38.89
22755;BME280;11544;42.020;23.094;2023-02-02T12:54:33;97071.00;;;11.72;38.67
22755;BME280;11544;42.020;23.094;2023-02-02T13:03:00;97067.47;;;11.53;38.97
22755;BME280;11544;42.020;23.094;2023-02-02T13:05:40;97056.63;;;11.82;37.76
22755;BME280;11544;42.020;23.094;2023-02-02T13:08:33;97066.59;;;11.52;38.39
22755;BME280;11544;42.020;23.094;2023-02-02T13:11:06;97064.59;;;11.16;38.21
22755;BME280;11544;42.020;23.094;2023-02-02T13:14:19;97056.19;;;11.30;37.85
22755;BME280;11544;42.020;23.094;2023-02-02T13:16:52;97049.84;;;11.58;38.87
22755;BME280;11544;42.020;23.094;2023-02-02T13:19:28;97037.69;;;11.57;38.72
22755;BME280;11544;42.020;23.094;2023-02-02T13:21:57;97036.50;;;11.64;38.30
22755;BME280;11544;42.020;23.094;2023-02-02T13:24:31;97037.44;;;11.63;38.24
22755;BME280;11544;42.020;23.094;2023-02-02T13:27:02;97049.16;;;11.32;37.86
22755;BME280;11544;42.020;23.094;2023-02-02T13:29:40;97047.44;;;11.31;38.63
22755;BME280;11544;42.020;23.094;2023-02-02T13:32:35;97050.31;;;11.25;38.79
22755;BME280;11544;42.020;23.094;2023-02-02T13:35:33;97047.28;;;11.14;38.59
22755;BME280;11544;42.020;23.094;2023-02-02T13:38:22;97045.16;;;11.23;38.13
22755;BME280;11544;42.020;23.094;2023-02-02T13:40:53;97044.91;;;11.30;38.60
22755;BME280;11544;42.020;23.094;2023-02-02T13:43:38;97035.72;;;11.41;38.51
22755;BME280;11544;42.020;23.094;2023-02-02T13:49:30;97043.88;;;11.54;38.17
22755;BME280;11544;42.020;23.094;2023-02-02T13:52:23;97046.41;;;11.35;38.34
22755;BME280;11544;42.020;23.094;2023-02-02T14:00:43;97033.03;;;11.00;39.61
22755;BME280;11544;42.020;23.094;2023-02-02T14:06:19;97037.28;;;10.59;40.56
22755;BME280;11544;42.020;23.094;2023-02-02T14:08:56;97026.22;;;10.52;40.68
22755;BME280;11544;42.020;23.094;2023-02-02T14:16:54;97013.88;;;10.34;41.35
22755;BME280;11544;42.020;23.094;2023-02-02T14:22:16;97014.50;;;10.41;41.27
22755;BME280;11544;42.020;23.094;2023-02-02T14:24:47;97013.22;;;10.27;41.88
22755;BME280;11544;42.020;23.094;2023-02-02T14:48:40;97020.06;;;10.31;41.49
22755;BME280;11544;42.020;23.094;2023-02-02T14:51:28;97012.38;;;10.27;42.12
22755;BME280;11544;42.020;23.094;2023-02-02T14:53:59;97014.31;;;10.22;42.05
22755;BME280;11544;42.020;23.094;2023-02-02T14:57:20;97013.31;;;10.26;41.48
22755;BME280;11544;42.020;23.094;2023-02-02T14:59:45;97023.44;;;10.10;41.86
22755;BME280;11544;42.020;23.094;2023-02-02T15:02:20;97026.59;;;9.94;42.98
22755;BME280;11544;42.020;23.094;2023-02-02T15:04:50;97029.53;;;9.60;43.93
22755;BME280;11544;42.020;23.094;2023-02-02T15:09:52;97037.28;;;9.62;44.96
22755;BME280;11544;42.020;23.094;2023-02-02T15:12:30;97051.13;;;9.37;45.37
22755;BME280;11544;42.020;23.094;2023-02-02T15:15:21;97044.34;;;9.33;46.53
22755;BME280;11544;42.020;23.094;2023-02-02T15:18:03;97052.94;;;9.07;47.07
22755;BME280;11544;42.020;23.094;2023-02-02T15:20:36;97053.97;;;9.03;47.77